AAL90 SBGL-KMIA
Flight info
| Callsign | AAL90 |
|---|---|
| Flight time | N/A |
| Altitude | 36000 |
| Route | EDNAM UM409 NEMEL/N0485F380 UM409 VUMPI UL795 TOMAX/N0481F400 UL795 ALTIB UM779 ZEUSS VIICE2 |
| Aircraft | B772/H-SDE2E3FGHIJ5LORVWXY/LB1D1 |
Departure
| Time | N/A |
|---|---|
| Airport | Rio Galeão – Tom Jobim International Airport (SBGL) |
Arrival
| Time | 2026-05-06 00:48 |
|---|---|
| Airport | Miami International Airport (KMIA) |
| Time | Latitude | Longitude | Altitude | Speed | Heading |
|---|---|---|---|---|---|
| 2026-05-06 00:16 | 23.89824 | -78.66568 | 40043 ft | 427 kts | 279° |
| 2026-05-06 00:16 | 23.90228 | -78.69626 | 40034 ft | 421 kts | 290° |
| 2026-05-06 00:16 | 23.91280 | -78.72588 | 40037 ft | 417 kts | 302° |
| 2026-05-06 00:17 | 23.94913 | -78.77485 | 40040 ft | 418 kts | 320° |
| 2026-05-06 00:17 | 23.97291 | -78.79238 | 40016 ft | 419 kts | 334° |
| 2026-05-06 00:17 | 23.99975 | -78.80494 | 40041 ft | 421 kts | 334° |
| 2026-05-06 00:18 | 24.05271 | -78.83260 | 40038 ft | 423 kts | 330° |
| 2026-05-06 00:18 | 24.10398 | -78.86434 | 40038 ft | 424 kts | 328° |
| 2026-05-06 00:19 | 24.15444 | -78.89765 | 40036 ft | 423 kts | 327° |
| 2026-05-06 00:19 | 24.20459 | -78.93105 | 40030 ft | 421 kts | 327° |
| 2026-05-06 00:20 | 24.25414 | -78.96396 | 40027 ft | 418 kts | 328° |
| 2026-05-06 00:20 | 24.30371 | -78.99684 | 40028 ft | 415 kts | 327° |
| 2026-05-06 00:21 | 24.35297 | -79.02953 | 40028 ft | 414 kts | 327° |
| 2026-05-06 00:21 | 24.40217 | -79.06221 | 40036 ft | 413 kts | 327° |
| 2026-05-06 00:22 | 24.45099 | -79.09468 | 40033 ft | 413 kts | 327° |
| 2026-05-06 00:22 | 24.50013 | -79.12737 | 40032 ft | 413 kts | 327° |
| 2026-05-06 00:22 | 24.52486 | -79.14384 | 39559 ft | 420 kts | 327° |
| 2026-05-06 00:23 | 24.54987 | -79.16051 | 38948 ft | 421 kts | 327° |
| 2026-05-06 00:23 | 24.57476 | -79.17710 | 38186 ft | 416 kts | 327° |
| 2026-05-06 00:23 | 24.59951 | -79.19360 | 37430 ft | 416 kts | 327° |
| 2026-05-06 00:23 | 24.62432 | -79.21016 | 36669 ft | 417 kts | 327° |
| 2026-05-06 00:24 | 24.64881 | -79.22652 | 35921 ft | 419 kts | 327° |
| 2026-05-06 00:24 | 24.67380 | -79.24322 | 35077 ft | 422 kts | 327° |
| 2026-05-06 00:24 | 24.69903 | -79.26010 | 34176 ft | 428 kts | 327° |
| 2026-05-06 00:24 | 24.72462 | -79.27722 | 33131 ft | 433 kts | 327° |
| 2026-05-06 00:25 | 24.75051 | -79.29454 | 32129 ft | 438 kts | 326° |
| 2026-05-06 00:25 | 24.77669 | -79.31208 | 31129 ft | 443 kts | 326° |
| 2026-05-06 00:25 | 24.80298 | -79.32967 | 30377 ft | 442 kts | 326° |
| 2026-05-06 00:25 | 24.82923 | -79.34726 | 29500 ft | 442 kts | 326° |
| 2026-05-06 00:26 | 24.85540 | -79.36479 | 28646 ft | 439 kts | 326° |
| 2026-05-06 00:26 | 24.88103 | -79.38197 | 27857 ft | 435 kts | 326° |
| 2026-05-06 00:26 | 24.90683 | -79.39928 | 27074 ft | 432 kts | 326° |
| 2026-05-06 00:26 | 24.93236 | -79.41642 | 26318 ft | 429 kts | 326° |
| 2026-05-06 00:27 | 24.95772 | -79.43346 | 25561 ft | 426 kts | 326° |
| 2026-05-06 00:27 | 24.98298 | -79.45044 | 24801 ft | 424 kts | 326° |
| 2026-05-06 00:27 | 25.00813 | -79.46736 | 24057 ft | 423 kts | 326° |
| 2026-05-06 00:27 | 25.03319 | -79.48422 | 23438 ft | 418 kts | 326° |
| 2026-05-06 00:28 | 25.05749 | -79.50056 | 23228 ft | 402 kts | 326° |
| 2026-05-06 00:28 | 25.08065 | -79.51614 | 23039 ft | 388 kts | 326° |
| 2026-05-06 00:28 | 25.10330 | -79.53139 | 22713 ft | 378 kts | 326° |
| 2026-05-06 00:28 | 25.12563 | -79.54644 | 22178 ft | 375 kts | 326° |
| 2026-05-06 00:29 | 25.14777 | -79.56138 | 21660 ft | 372 kts | 326° |
| 2026-05-06 00:29 | 25.16976 | -79.57621 | 21150 ft | 369 kts | 326° |
| 2026-05-06 00:29 | 25.19156 | -79.59093 | 20644 ft | 367 kts | 326° |
| 2026-05-06 00:29 | 25.21326 | -79.60559 | 20146 ft | 365 kts | 326° |
| 2026-05-06 00:30 | 25.23486 | -79.62018 | 19648 ft | 363 kts | 326° |
| 2026-05-06 00:30 | 25.25606 | -79.63451 | 19152 ft | 362 kts | 326° |
| 2026-05-06 00:30 | 25.27749 | -79.64900 | 18663 ft | 361 kts | 326° |
| 2026-05-06 00:30 | 25.29886 | -79.66346 | 18138 ft | 360 kts | 326° |
| 2026-05-06 00:31 | 25.32018 | -79.67789 | 17608 ft | 358 kts | 327° |
| 2026-05-06 00:31 | 25.34140 | -79.69224 | 17092 ft | 356 kts | 327° |
| 2026-05-06 00:31 | 25.36248 | -79.70651 | 16600 ft | 354 kts | 326° |
| 2026-05-06 00:31 | 25.38316 | -79.72099 | 16101 ft | 348 kts | 321° |
| 2026-05-06 00:32 | 25.39981 | -79.73969 | 15711 ft | 337 kts | 305° |
| 2026-05-06 00:32 | 25.41292 | -79.76069 | 15385 ft | 336 kts | 303° |
| 2026-05-06 00:32 | 25.42617 | -79.78203 | 15038 ft | 338 kts | 304° |
| 2026-05-06 00:32 | 25.43960 | -79.80341 | 14679 ft | 338 kts | 304° |
| 2026-05-06 00:33 | 25.45309 | -79.82460 | 14334 ft | 336 kts | 304° |
| 2026-05-06 00:33 | 25.46660 | -79.84569 | 13981 ft | 335 kts | 304° |
| 2026-05-06 00:33 | 25.48005 | -79.86667 | 13594 ft | 334 kts | 304° |
| 2026-05-06 00:33 | 25.49345 | -79.88756 | 13230 ft | 332 kts | 304° |
| 2026-05-06 00:34 | 25.50673 | -79.90829 | 12878 ft | 329 kts | 304° |
| 2026-05-06 00:34 | 25.51992 | -79.92888 | 12530 ft | 327 kts | 304° |
| 2026-05-06 00:34 | 25.53283 | -79.94906 | 12193 ft | 324 kts | 304° |
| 2026-05-06 00:34 | 25.54582 | -79.96938 | 11856 ft | 322 kts | 304° |
| 2026-05-06 00:35 | 25.55870 | -79.98952 | 11520 ft | 318 kts | 304° |
| 2026-05-06 00:35 | 25.57137 | -80.00934 | 11190 ft | 313 kts | 304° |
| 2026-05-06 00:35 | 25.58385 | -80.02886 | 10860 ft | 308 kts | 304° |
| 2026-05-06 00:35 | 25.59599 | -80.04787 | 10616 ft | 294 kts | 303° |
| 2026-05-06 00:36 | 25.60753 | -80.06594 | 10258 ft | 280 kts | 303° |
| 2026-05-06 00:36 | 25.61849 | -80.08310 | 9962 ft | 270 kts | 303° |
| 2026-05-06 00:36 | 25.62933 | -80.10011 | 9658 ft | 268 kts | 303° |
| 2026-05-06 00:36 | 25.63986 | -80.11663 | 9345 ft | 265 kts | 303° |
| 2026-05-06 00:37 | 25.65046 | -80.13327 | 9083 ft | 263 kts | 303° |
| 2026-05-06 00:37 | 25.65987 | -80.15035 | 8826 ft | 259 kts | 295° |
| 2026-05-06 00:37 | 25.66747 | -80.16858 | 8587 ft | 262 kts | 293° |
| 2026-05-06 00:37 | 25.67502 | -80.18714 | 8365 ft | 266 kts | 294° |
| 2026-05-06 00:38 | 25.68272 | -80.20569 | 8121 ft | 264 kts | 294° |
| 2026-05-06 00:38 | 25.69043 | -80.22414 | 7860 ft | 263 kts | 294° |
| 2026-05-06 00:38 | 25.69816 | -80.24246 | 7599 ft | 262 kts | 294° |
| 2026-05-06 00:38 | 25.70578 | -80.26044 | 7345 ft | 260 kts | 294° |
| 2026-05-06 00:39 | 25.71192 | -80.27887 | 7065 ft | 253 kts | 277° |
| 2026-05-06 00:39 | 25.71176 | -80.29822 | 6832 ft | 254 kts | 266° |
| 2026-05-06 00:39 | 25.71069 | -80.31804 | 6579 ft | 261 kts | 267° |
| 2026-05-06 00:39 | 25.70968 | -80.33837 | 6312 ft | 264 kts | 267° |
| 2026-05-06 00:40 | 25.70870 | -80.35861 | 6021 ft | 261 kts | 267° |
| 2026-05-06 00:40 | 25.70775 | -80.37858 | 5749 ft | 259 kts | 267° |
| 2026-05-06 00:40 | 25.70679 | -80.39849 | 5486 ft | 258 kts | 267° |
| 2026-05-06 00:40 | 25.70583 | -80.41842 | 5235 ft | 261 kts | 268° |
| 2026-05-06 00:41 | 25.70487 | -80.43815 | 5079 ft | 255 kts | 266° |
| 2026-05-06 00:41 | 25.70366 | -80.45752 | 5022 ft | 250 kts | 266° |
| 2026-05-06 00:41 | 25.70237 | -80.47643 | 4989 ft | 241 kts | 266° |
| 2026-05-06 00:41 | 25.70116 | -80.49448 | 4931 ft | 229 kts | 266° |
| 2026-05-06 00:42 | 25.69993 | -80.51225 | 4559 ft | 234 kts | 266° |
| 2026-05-06 00:42 | 25.69883 | -80.53047 | 4159 ft | 235 kts | 273° |
| 2026-05-06 00:42 | 25.70445 | -80.54759 | 4066 ft | 250 kts | 310° |
| 2026-05-06 00:42 | 25.71871 | -80.55850 | 3918 ft | 250 kts | 342° |
| 2026-05-06 00:43 | 25.73540 | -80.55982 | 3764 ft | 243 kts | 12° |
| 2026-05-06 00:43 | 25.75018 | -80.55180 | 3615 ft | 235 kts | 42° |
| 2026-05-06 00:43 | 25.75990 | -80.53774 | 3459 ft | 227 kts | 64° |
| 2026-05-06 00:43 | 25.76587 | -80.52168 | 3343 ft | 224 kts | 70° |
| 2026-05-06 00:44 | 25.77123 | -80.50561 | 3188 ft | 220 kts | 70° |
| 2026-05-06 00:44 | 25.77645 | -80.48983 | 3065 ft | 214 kts | 73° |
| 2026-05-06 00:44 | 25.77927 | -80.47372 | 2800 ft | 211 kts | 84° |
| 2026-05-06 00:44 | 25.78027 | -80.45746 | 2526 ft | 211 kts | 87° |
| 2026-05-06 00:45 | 25.78089 | -80.44131 | 2283 ft | 207 kts | 88° |
| 2026-05-06 00:45 | 25.78146 | -80.42602 | 2000 ft | 195 kts | 87° |
| 2026-05-06 00:45 | 25.78206 | -80.41155 | 1748 ft | 181 kts | 88° |
| 2026-05-06 00:45 | 25.78261 | -80.39825 | 1533 ft | 164 kts | 87° |
| 2026-05-06 00:46 | 25.78310 | -80.38634 | 1333 ft | 144 kts | 87° |
| 2026-05-06 00:46 | 25.78353 | -80.37589 | 1148 ft | 129 kts | 86° |
| 2026-05-06 00:46 | 25.78395 | -80.36613 | 996 ft | 127 kts | 86° |
| 2026-05-06 00:46 | 25.78436 | -80.35626 | 827 ft | 127 kts | 88° |
| 2026-05-06 00:47 | 25.78475 | -80.34651 | 717 ft | 129 kts | 86° |
| 2026-05-06 00:47 | 25.78508 | -80.33656 | 472 ft | 129 kts | 86° |
| 2026-05-06 00:47 | 25.78556 | -80.32745 | 312 ft | 123 kts | 86° |
| 2026-05-06 00:47 | 25.78601 | -80.31765 | 202 ft | 126 kts | 85° |
| 2026-05-06 00:48 | 25.78642 | -80.30792 | 44 ft | 125 kts | 84° |
| 2026-05-06 00:48 | 25.78679 | -80.29932 | 20 ft | 96 kts | 86° |
| 2026-05-06 00:48 | 25.78698 | -80.29366 | 26 ft | 51 kts | 87° |
| 2026-05-06 00:48 | 25.78717 | -80.29022 | 21 ft | 42 kts | 87° |
| 2026-05-06 00:49 | 25.78750 | -80.28767 | 25 ft | 30 kts | 61° |
| 2026-05-06 00:49 | 25.78879 | -80.28624 | 22 ft | 21 kts | 39° |
| 2026-05-06 00:49 | 25.78936 | -80.28575 | 24 ft | 0 kts | 35° |
| 2026-05-06 00:49 | 25.78952 | -80.28563 | 22 ft | 10 kts | 34° |
| 2026-05-06 00:50 | 25.79051 | -80.28488 | 22 ft | 24 kts | 34° |
| 2026-05-06 00:50 | 25.79121 | -80.28436 | 23 ft | 12 kts | 33° |
| 2026-05-06 00:50 | 25.79218 | -80.28416 | 26 ft | 17 kts | 326° |
| 2026-05-06 00:50 | 25.79307 | -80.28578 | 24 ft | 32 kts | 298° |
| 2026-05-06 00:51 | 25.79402 | -80.28762 | 19 ft | 12 kts | 300° |
| 2026-05-06 00:51 | 25.79471 | -80.28801 | 24 ft | 12 kts | 355° |
| 2026-05-06 00:51 | 25.79555 | -80.28804 | 25 ft | 14 kts | 358° |
| 2026-05-06 00:51 | 25.79661 | -80.28810 | 27 ft | 17 kts | 356° |
| 2026-05-06 00:52 | 25.79796 | -80.28819 | 27 ft | 21 kts | 357° |
| 2026-05-06 00:52 | 25.79916 | -80.28808 | 29 ft | 12 kts | 34° |
| 2026-05-06 00:52 | 25.79938 | -80.28710 | 29 ft | 16 kts | 88° |
| 2026-05-06 00:52 | 25.79943 | -80.28570 | 23 ft | 21 kts | 87° |
| 2026-05-06 00:53 | 25.79946 | -80.28514 | 23 ft | 23 kts | 88° |